Time;durP1;ratioP1;P1;durP2;ratioP2;P2;SDS_P1;SDS_P2;PMS_P1;PMS_P2;Temp;Humidity;BMP_temperature;BMP_pressure;BME280_temperature;BME280_humidity;BME280_pressure;Samples;Min_cycle;Max_cycle;Signal;HPM_P1;HPM_P2
2021/01/24 00:00:26;;;;;;;88.57;46.45;;;;;;;6.08;100.00;95846.47;4986548;28;20104;-71
2021/01/24 00:02:52;;;;;;;83.88;43.85;;;;;;;5.73;100.00;95771.72;4974609;28;20054;-71
2021/01/24 00:05:19;;;;;;;93.57;46.80;;;;;;;6.33;100.00;95864.13;4966937;28;20069;-71
2021/01/24 00:07:45;;;;;;;79.80;41.58;;;;;;;6.51;100.00;95876.16;4981529;28;20034;-71
2021/01/24 00:10:14;;;;;;;83.10;44.15;;;;;;;5.81;100.00;95814.63;4984963;28;20046;-71
2021/01/24 00:12:40;;;;;;;79.78;42.85;;;;;;;6.22;100.00;95882.41;4984804;28;20040;-71
2021/01/24 00:15:07;;;;;;;87.88;43.88;;;;;;;6.35;100.00;95878.28;4985404;28;20050;-71
2021/01/24 00:17:33;;;;;;;87.50;45.13;;;;;;;6.45;100.00;95879.59;4985879;28;20030;-71
2021/01/24 00:19:59;;;;;;;75.88;40.97;;;;;;;6.57;100.00;95882.91;4986217;28;20098;-75
2021/01/24 00:22:25;;;;;;;65.68;36.50;;;;;;;6.73;100.00;95868.97;4985846;28;20030;-75
2021/01/24 00:24:51;;;;;;;62.25;35.47;;;;;;;4.07;100.00;95441.97;4984508;28;20132;-76
2021/01/24 00:27:16;;;;;;;65.80;34.88;;;;;;;6.83;100.00;95866.34;4985831;28;20429;-77
2021/01/24 00:29:42;;;;;;;69.25;37.30;;;;;;;6.79;100.00;95860.00;4985910;28;20484;-73
2021/01/24 00:32:07;;;;;;;62.88;33.22;;;;;;;6.45;100.00;95806.13;4985729;28;20058;-75
2021/01/24 00:34:32;;;;;;;73.88;37.17;;;;;;;6.73;100.00;95845.00;4985826;28;20046;-75
2021/01/24 00:36:58;;;;;;;59.63;32.80;;;;;;;6.75;100.00;95848.16;4985676;28;20474;-74
2021/01/24 00:39:23;;;;;;;69.15;36.95;;;;;;;6.76;100.00;95838.75;4985609;28;20572;-75
2021/01/24 00:41:49;;;;;;;63.78;34.28;;;;;;;6.86;100.00;95838.06;4984629;28;20046;-76
2021/01/24 00:44:14;;;;;;;72.07;35.65;;;;;;;6.62;100.00;95833.06;4985589;28;20046;-73
2021/01/24 00:46:40;;;;;;;106.07;52.78;;;;;;;6.36;100.00;95800.13;4983876;28;20528;-76
2021/01/24 00:49:05;;;;;;;85.88;43.47;;;;;;;6.29;100.00;95802.00;4985557;28;20054;-75
2021/01/24 00:51:31;;;;;;;90.15;46.58;;;;;;;6.32;100.00;95796.53;4985294;28;20037;-72
2021/01/24 00:53:56;;;;;;;84.25;45.03;;;;;;;6.57;100.00;95822.41;4985734;28;20034;-73
2021/01/24 00:56:21;;;;;;;74.00;41.90;;;;;;;6.58;100.00;95815.72;4985255;28;20563;-74
2021/01/24 00:58:47;;;;;;;72.28;34.53;;;;;;;6.44;100.00;95801.78;4985728;28;20489;-74
2021/01/24 01:01:12;;;;;;;56.95;29.05;;;;;;;6.37;100.00;95804.44;4983982;28;20031;-72
2021/01/24 01:03:38;;;;;;;58.60;28.88;;;;;;;6.37;100.00;95809.16;4984089;28;20617;-74
2021/01/24 01:06:03;;;;;;;50.75;25.40;;;;;;;6.20;100.00;95765.75;4985594;28;20036;-74
2021/01/24 01:08:29;;;;;;;63.28;29.77;;;;;;;6.37;100.00;95787.94;4985589;28;20038;-72
2021/01/24 01:10:54;;;;;;;59.85;31.58;;;;;;;6.16;100.00;95804.19;4985565;28;20140;-74
2021/01/24 01:13:19;;;;;;;69.68;36.63;;;;;;;5.88;100.00;95803.78;4985374;28;20077;-73
2021/01/24 01:15:45;;;;;;;83.20;38.38;;;;;;;5.73;100.00;95790.94;4983668;28;20042;-76
2021/01/24 01:18:10;;;;;;;63.05;26.33;;;;;;;5.87;100.00;95785.69;4985468;28;20050;-71
2021/01/24 01:20:36;;;;;;;52.40;25.48;;;;;;;6.11;100.00;95796.25;4985257;28;20576;-73
2021/01/24 01:23:01;;;;;;;59.25;26.00;;;;;;;6.10;100.00;95791.94;4985369;28;20030;-74
2021/01/24 01:25:27;;;;;;;57.55;29.27;;;;;;;5.72;100.00;95739.94;4985157;28;20074;-63
2021/01/24 01:27:52;;;;;;;85.00;40.05;;;;;;;6.03;100.00;95794.56;4985008;28;20561;-62
2021/01/24 01:30:19;;;;;;;79.80;39.30;;;;;;;6.05;100.00;95787.53;4985225;28;20045;-63
2021/01/24 01:32:44;;;;;;;91.88;44.33;;;;;;;5.78;100.00;95754.94;4985006;28;20040;-63
2021/01/24 01:35:10;;;;;;;102.40;49.75;;;;;;;5.58;100.00;95713.03;4985481;28;20041;-62
2021/01/24 01:37:36;;;;;;;82.75;40.80;;;;;;;6.02;100.00;95773.75;4984976;28;20026;-63
2021/01/24 01:40:03;;;;;;;79.85;36.13;;;;;;;6.38;100.00;95805.25;4985327;28;20035;-62
2021/01/24 01:42:28;;;;;;;67.60;32.58;;;;;;;6.42;100.00;95790.38;4984891;28;20030;-63
2021/01/24 01:44:54;;;;;;;75.90;35.38;;;;;;;6.41;100.00;95796.25;4985121;28;20474;-62
2021/01/24 01:47:23;;;;;;;90.22;46.03;;;;;;;5.93;100.00;95715.50;4987306;28;20045;-63
2021/01/24 01:49:58;;;;;;;78.75;36.38;;;;;;;5.32;100.00;95616.19;4988920;28;20026;-62
2021/01/24 01:52:28;;;;;;;87.25;42.78;;;;;;;5.25;100.00;95646.28;4988654;28;20073;-62
2021/01/24 01:54:55;;;;;;;104.68;51.63;;;;;;;6.12;100.00;95753.84;4988869;28;20033;-64
2021/01/24 01:57:22;;;;;;;106.45;53.33;;;;;;;6.24;100.00;95772.88;4987348;28;20519;-62
2021/01/24 01:59:48;;;;;;;93.70;45.20;;;;;;;6.33;100.00;95778.88;4988073;28;20026;-62
2021/01/24 02:02:29;;;;;;;85.07;42.65;;;;;;;6.41;100.00;95758.53;4986937;28;20413;-63
2021/01/24 02:05:10;;;;;;;89.40;42.70;;;;;;;6.42;100.00;95757.38;4988101;28;20531;-63
2021/01/24 02:08:03;;;;;;;82.80;38.53;;;;;;;6.34;100.00;95755.69;4987036;28;20081;-64
2021/01/24 02:10:44;;;;;;;121.75;62.03;;;;;;;6.28;100.00;95759.94;4968505;28;20065;-63
2021/01/24 02:13:45;;;;;;;115.40;55.70;;;;;;;6.24;100.00;95756.38;4967448;28;20086;-64
2021/01/24 02:16:14;;;;;;;90.32;42.58;;;;;;;6.05;100.00;95762.00;4946260;28;20462;-64
2021/01/24 02:18:42;;;;;;;89.90;42.63;;;;;;;5.97;100.00;95725.38;4944125;29;20047;-63
2021/01/24 02:21:22;;;;;;;87.78;45.40;;;;;;;6.16;100.00;95740.94;4949261;28;20143;-65
2021/01/24 02:23:49;;;;;;;91.88;42.67;;;;;;;6.16;100.00;95751.94;4949542;29;20039;-63
2021/01/24 02:26:54;;;;;;;128.45;63.60;;;;;;;5.79;100.00;95712.53;4949790;28;20033;-63
2021/01/24 02:29:37;;;;;;;115.57;61.65;;;;;;;5.98;100.00;95754.47;4948782;28;20062;-64
2021/01/24 02:32:04;;;;;;;128.55;65.68;;;;;;;5.52;100.00;95686.25;4947623;28;20030;-64
2021/01/24 02:34:33;;;;;;;128.27;61.97;;;;;;;5.40;100.00;95662.59;4980367;28;20062;-64
2021/01/24 02:37:00;;;;;;;97.00;55.60;;;;;;;6.21;100.00;95773.63;4949415;28;20482;-63
2021/01/24 02:39:27;;;;;;;80.05;42.25;;;;;;;6.00;100.00;95745.84;4949058;28;20067;-63
2021/01/24 02:41:52;;;;;;;54.80;23.98;;;;;;;6.15;100.00;95780.59;4949258;28;20035;-65
2021/01/24 02:44:18;;;;;;;74.22;37.15;;;;;;;6.09;100.00;95776.59;4949535;28;20039;-63
2021/01/24 02:46:45;;;;;;;112.47;55.30;;;;;;;5.35;100.00;95670.34;4949084;28;20031;-64
2021/01/24 02:49:12;;;;;;;123.93;58.35;;;;;;;4.63;100.00;95555.19;4949322;28;20455;-63
2021/01/24 02:51:38;;;;;;;124.80;60.15;;;;;;;5.96;100.00;95758.72;4949065;28;20118;-64
2021/01/24 02:54:04;;;;;;;119.07;57.88;;;;;;;5.91;100.00;95770.84;4948492;28;20118;-64
2021/01/24 02:56:30;;;;;;;112.25;56.40;;;;;;;5.95;100.00;95776.38;4963222;28;20047;-64
2021/01/24 02:58:56;;;;;;;117.78;55.95;;;;;;;5.92;100.00;95771.63;4963093;28;20125;-62
2021/01/24 03:01:21;;;;;;;118.30;54.35;;;;;;;5.92;100.00;95766.16;4948479;28;20035;-62
2021/01/24 03:03:47;;;;;;;126.40;60.75;;;;;;;5.81;100.00;95762.41;4948330;28;20046;-63
2021/01/24 03:06:13;;;;;;;146.05;73.25;;;;;;;5.28;100.00;95687.50;4948687;28;20228;-62
2021/01/24 03:08:39;;;;;;;154.18;74.63;;;;;;;5.82;100.00;95769.53;4951661;28;20031;-63
2021/01/24 03:11:09;;;;;;;139.45;70.50;;;;;;;5.58;100.00;95735.00;4967548;28;20519;-62
2021/01/24 03:13:50;;;;;;;132.48;68.38;;;;;;;5.78;100.00;95774.16;4967669;28;20039;-63
2021/01/24 03:16:16;;;;;;;142.23;69.70;;;;;;;5.72;100.00;95772.91;4983387;28;20073;-62
2021/01/24 03:18:45;;;;;;;132.50;67.10;;;;;;;5.74;100.00;95784.28;4986955;28;20506;-64
2021/01/24 03:21:11;;;;;;;139.32;66.70;;;;;;;5.70;100.00;95775.22;4986853;28;20066;-64
2021/01/24 03:23:38;;;;;;;159.80;76.45;;;;;;;5.71;100.00;95771.28;4986934;28;20596;-62
2021/01/24 03:26:09;;;;;;;177.77;86.50;;;;;;;5.68;100.00;95772.03;4985333;28;20146;-63
2021/01/24 03:28:37;;;;;;;169.30;83.80;;;;;;;5.63;100.00;95769.59;4986719;28;20084;-64
2021/01/24 03:31:06;;;;;;;154.82;80.47;;;;;;;5.62;100.00;95774.31;4986807;28;20030;-62
2021/01/24 03:33:33;;;;;;;165.68;87.28;;;;;;;5.60;100.00;95781.31;4986863;28;20588;-61
2021/01/24 03:35:59;;;;;;;157.25;83.45;;;;;;;5.64;100.00;95776.69;4985162;28;20502;-63
2021/01/24 03:38:25;;;;;;;276.38;119.10;;;;;;;5.27;100.00;95721.59;4986616;28;20049;-63
2021/01/24 03:40:50;;;;;;;171.10;79.50;;;;;;;5.32;100.00;95724.03;4986568;28;20117;-62
2021/01/24 03:43:16;;;;;;;155.68;74.68;;;;;;;5.57;100.00;95784.81;4986709;28;20034;-63
2021/01/24 03:45:41;;;;;;;140.82;69.65;;;;;;;5.44;100.00;95773.25;4984956;28;20552;-63
2021/01/24 03:48:07;;;;;;;137.10;62.65;;;;;;;5.48;100.00;95784.28;4986574;28;20498;-63
2021/01/24 03:50:32;;;;;;;90.47;44.88;;;;;;;5.55;100.00;95789.88;4986343;28;20030;-63
2021/01/24 03:52:57;;;;;;;101.35;47.33;;;;;;;5.52;100.00;95796.09;4986521;28;20033;-64
2021/01/24 03:55:23;;;;;;;105.82;50.45;;;;;;;5.57;100.00;95798.53;4986386;28;20420;-63
2021/01/24 03:57:48;;;;;;;86.30;43.28;;;;;;;5.54;100.00;95804.78;4986419;28;20409;-62
2021/01/24 04:00:14;;;;;;;88.25;40.58;;;;;;;5.52;100.00;95807.09;4984495;28;20043;-64
2021/01/24 04:02:39;;;;;;;84.18;38.75;;;;;;;5.54;100.00;95804.78;4986307;28;20113;-62
2021/01/24 04:05:05;;;;;;;90.78;40.90;;;;;;;5.59;100.00;95801.72;4986260;28;20041;-63
2021/01/24 04:07:31;;;;;;;81.68;41.72;;;;;;;5.62;100.00;95790.00;4986113;28;20030;-62
2021/01/24 04:09:56;;;;;;;85.43;43.35;;;;;;;5.59;100.00;95788.00;4985244;28;20050;-63
2021/01/24 04:12:22;;;;;;;120.78;56.58;;;;;;;5.64;100.00;95795.91;4986232;28;20033;-62
2021/01/24 04:14:47;;;;;;;130.00;68.13;;;;;;;5.61;100.00;95785.69;4985904;28;20509;-63
2021/01/24 04:17:12;;;;;;;112.45;56.70;;;;;;;5.68;100.00;95783.03;4986163;28;20030;-64
2021/01/24 04:19:38;;;;;;;110.32;54.88;;;;;;;3.33;100.00;95420.75;4986214;28;20100;-63
2021/01/24 04:22:03;;;;;;;146.80;71.55;;;;;;;3.24;100.00;95463.97;4984264;28;20034;-62
2021/01/24 04:24:29;;;;;;;111.28;58.53;;;;;;;5.48;100.00;95743.09;4984326;28;20038;-63
2021/01/24 04:26:54;;;;;;;151.57;74.95;;;;;;;5.43;100.00;95755.19;4972109;28;20046;-63
2021/01/24 04:29:21;;;;;;;147.93;70.35;;;;;;;5.39;100.00;95742.56;4966558;28;20035;-63
2021/01/24 04:31:46;;;;;;;112.93;52.17;;;;;;;5.61;100.00;95791.16;4981333;28;20027;-63
2021/01/24 04:34:12;;;;;;;91.65;43.55;;;;;;;5.69;100.00;95792.88;4966721;28;20043;-63
2021/01/24 04:36:39;;;;;;;94.57;43.10;;;;;;;5.07;100.00;95686.38;4966373;28;20450;-62
2021/01/24 04:39:04;;;;;;;77.85;37.83;;;;;;;5.66;100.00;95779.84;4981203;28;20525;-62
2021/01/24 04:41:34;;;;;;;70.97;35.00;;;;;;;5.57;100.00;95791.09;4966556;28;20034;-62
2021/01/24 04:43:59;;;;;;;62.10;27.98;;;;;;;5.17;100.00;95763.38;4966421;28;20038;-62
2021/01/24 04:46:25;;;;;;;53.53;24.52;;;;;;;2.91;100.00;95395.34;4966040;28;20038;-62
2021/01/24 04:48:50;;;;;;;47.13;21.88;;;;;;;5.41;100.00;95793.19;4966224;28;20035;-62
2021/01/24 04:51:16;;;;;;;45.90;22.40;;;;;;;5.36;100.00;95792.72;4980786;28;20030;-62
2021/01/24 04:53:42;;;;;;;44.80;20.05;;;;;;;4.85;100.00;95706.38;4966113;28;20046;-62
2021/01/24 04:56:08;;;;;;;42.60;20.70;;;;;;;4.54;100.00;95642.41;4965955;28;20118;-62
2021/01/24 04:58:35;;;;;;;49.80;27.73;;;;;;;5.55;100.00;95800.84;4965944;28;20073;-62
2021/01/24 05:01:01;;;;;;;54.92;26.98;;;;;;;5.50;100.00;95803.94;4956431;28;20109;-62
2021/01/24 05:03:26;;;;;;;55.28;29.20;;;;;;;5.53;100.00;95814.19;4965968;28;20035;-64
2021/01/24 05:05:52;;;;;;;66.10;35.58;;;;;;;5.68;100.00;95819.53;4965644;28;20041;-63
2021/01/24 05:08:17;;;;;;;62.72;33.00;;;;;;;5.34;100.00;95748.38;4965976;28;20122;-63
2021/01/24 05:10:46;;;;;;;75.10;37.15;;;;;;;5.76;100.00;95812.19;4996034;28;20038;-64
2021/01/24 05:13:12;;;;;;;91.40;39.85;;;;;;;5.73;100.00;95818.41;4983535;28;20035;-64
2021/01/24 05:15:38;;;;;;;77.05;37.05;;;;;;;5.17;100.00;95796.31;4983216;28;20100;-63
2021/01/24 05:18:04;;;;;;;79.82;38.70;;;;;;;5.64;100.00;95826.13;4982363;28;20490;-63
2021/01/24 05:20:31;;;;;;;86.13;44.03;;;;;;;4.97;100.00;95708.94;4985254;28;20038;-62
2021/01/24 05:23:00;;;;;;;82.13;40.85;;;;;;;5.68;100.00;95843.44;4987192;28;20030;-62
2021/01/24 05:25:30;;;;;;;90.75;38.03;;;;;;;5.76;100.00;95840.47;4979596;28;20112;-65
2021/01/24 05:27:58;;;;;;;76.45;35.00;;;;;;;5.70;100.00;95920.81;4987618;28;20509;-63
2021/01/24 05:30:31;;;;;;;82.03;31.92;;;;;;;5.54;100.00;95848.72;4987375;28;20425;-63
2021/01/24 05:32:58;;;;;;;84.25;39.03;;;;;;;5.48;100.00;95856.47;4987424;28;20057;-65
2021/01/24 05:35:25;;;;;;;243.32;109.72;;;;;;;5.11;100.00;95827.97;4988790;28;20045;-64
2021/01/24 05:37:50;;;;;;;110.63;43.63;;;;;;;4.31;100.00;95703.84;4988987;28;20026;-62
2021/01/24 05:40:16;;;;;;;111.45;44.92;;;;;;;5.31;100.00;95873.41;4988650;28;20085;-62
2021/01/24 05:42:42;;;;;;;99.10;38.55;;;;;;;5.14;100.00;95884.09;4987309;28;20442;-62
2021/01/24 05:45:12;;;;;;;83.18;34.35;;;;;;;5.11;100.00;95871.88;4988972;28;20409;-63
2021/01/24 05:47:40;;;;;;;70.32;32.53;;;;;;;4.30;100.00;95741.41;4988800;28;20034;-63
2021/01/24 05:50:16;;;;;;;109.25;49.22;;;;;;;4.77;100.00;95837.13;4987368;28;20497;-62
2021/01/24 05:52:47;;;;;;;140.80;68.90;;;;;;;4.63;100.00;95810.22;4988480;28;20390;-62
2021/01/24 05:55:30;;;;;;;120.90;59.10;;;;;;;5.08;100.00;95885.53;4988754;28;20054;-62
2021/01/24 05:57:56;;;;;;;83.90;40.17;;;;;;;4.89;100.00;95877.31;4988480;28;20037;-62
2021/01/24 06:00:22;;;;;;;68.93;35.30;;;;;;;5.04;100.00;95884.69;4986680;28;20031;-62
2021/01/24 06:02:48;;;;;;;72.20;32.75;;;;;;;5.04;100.00;95890.16;4988671;28;20029;-62
2021/01/24 06:05:14;;;;;;;103.30;55.53;;;;;;;5.14;100.00;95879.38;4988894;28;20516;-63
2021/01/24 06:07:39;;;;;;;250.77;130.68;;;;;;;5.07;100.00;95865.53;4988706;28;20034;-63
2021/01/24 06:10:05;;;;;;;251.45;131.13;;;;;;;5.30;100.00;95887.50;4987080;28;20516;-62
2021/01/24 06:12:35;;;;;;;225.73;119.32;;;;;;;5.34;100.00;95889.16;4988424;28;20586;-62
2021/01/24 06:15:04;;;;;;;198.15;102.25;;;;;;;5.48;100.00;95916.09;4988203;28;20074;-63
2021/01/24 06:17:36;;;;;;;163.80;88.43;;;;;;;5.04;100.00;95904.69;4986964;28;20032;-64
2021/01/24 06:20:05;;;;;;;197.10;102.25;;;;;;;5.32;100.00;95907.97;4988527;28;20116;-62
2021/01/24 06:22:52;;;;;;;203.00;103.65;;;;;;;5.35;100.00;95903.69;4987869;28;20071;-63
2021/01/24 06:25:22;;;;;;;168.38;87.85;;;;;;;4.54;100.00;95768.53;4988196;28;20128;-63
2021/01/24 06:27:54;;;;;;;126.43;60.13;;;;;;;5.48;100.00;95894.94;4986748;28;20073;-62
2021/01/24 06:30:24;;;;;;;160.82;83.90;;;;;;;5.67;100.00;95910.53;4986292;28;20066;-64
2021/01/24 06:32:49;;;;;;;166.63;86.65;;;;;;;5.56;100.00;95884.84;4985955;28;20030;-62
2021/01/24 06:35:23;;;;;;;174.43;90.97;;;;;;;5.74;100.00;95914.19;4988081;28;20038;-62
2021/01/24 06:38:01;;;;;;;225.57;117.07;;;;;;;4.77;100.00;95748.56;4987779;28;20038;-62
2021/01/24 06:40:29;;;;;;;180.73;99.32;;;;;;;5.76;100.00;95894.59;4987699;28;20508;-61
2021/01/24 06:42:56;;;;;;;162.05;90.68;;;;;;;5.96;100.00;95926.34;4987817;28;20030;-63
2021/01/24 06:45:22;;;;;;;176.95;102.85;;;;;;;6.11;100.00;95922.69;4986059;28;20038;-63
2021/01/24 06:47:48;;;;;;;197.52;111.22;;;;;;;6.18;100.00;95929.09;4987462;28;20042;-61
2021/01/24 06:50:42;;;;;;;183.25;104.22;;;;;;;6.31;100.00;95915.94;4986265;28;20070;-61
2021/01/24 06:53:24;;;;;;;178.00;101.00;;;;;;;6.37;100.00;95922.69;4987578;28;20524;-62
2021/01/24 06:56:06;;;;;;;215.20;123.15;;;;;;;6.50;100.00;95934.25;4987737;28;20241;-63
2021/01/24 06:58:50;;;;;;;207.77;119.88;;;;;;;6.51;100.00;95942.19;4987537;28;20042;-66
2021/01/24 07:01:22;;;;;;;215.27;116.70;;;;;;;6.67;100.00;95940.03;4985945;28;20480;-62
2021/01/24 07:04:25;;;;;;;204.50;110.97;;;;;;;6.60;100.00;95945.44;4987503;28;20046;-64
2021/01/24 07:06:54;;;;;;;164.75;83.93;;;;;;;6.67;100.00;95934.53;4986670;28;20046;-62
2021/01/24 07:09:28;;;;;;;137.57;71.55;;;;;;;6.86;100.00;95939.88;4987398;28;20038;-61
2021/01/24 07:11:55;;;;;;;131.88;67.95;;;;;;;6.96;100.00;95931.00;4985691;28;20043;-62
2021/01/24 07:14:36;;;;;;;128.18;68.95;;;;;;;7.11;100.00;95931.97;4985150;28;20057;-63
2021/01/24 07:17:09;;;;;;;84.25;42.50;;;;;;;7.25;100.00;95954.97;4987219;28;20543;-62
2021/01/24 07:19:39;;;;;;;166.82;90.40;;;;;;;6.98;100.00;95967.19;4985806;28;20038;-64
2021/01/24 07:22:05;;;;;;;98.93;55.33;;;;;;;6.92;100.00;95952.19;4987063;28;20521;-62
2021/01/24 07:24:31;;;;;;;77.80;43.72;;;;;;;6.97;100.00;95982.13;4985928;28;20073;-63
2021/01/24 07:26:57;;;;;;;93.63;50.22;;;;;;;7.09;100.00;95968.13;4987025;28;20129;-63
2021/01/24 07:29:24;;;;;;;70.25;40.53;;;;;;;7.22;100.00;95966.69;4985640;28;20100;-63
2021/01/24 07:31:52;;;;;;;73.82;40.70;;;;;;;6.69;100.00;95888.16;4985266;28;20038;-65
2021/01/24 07:34:22;;;;;;;96.70;50.47;;;;;;;7.53;100.00;95982.84;4985418;28;20133;-62
2021/01/24 07:36:48;;;;;;;161.27;87.43;;;;;;;7.36;98.31;95928.34;4986619;28;20034;-63
2021/01/24 07:39:14;;;;;;;125.97;70.10;;;;;;;7.85;97.58;95976.84;4986504;28;20125;-63
2021/01/24 07:41:41;;;;;;;141.13;84.05;;;;;;;7.42;98.20;95877.25;4986333;28;20105;-64
2021/01/24 07:44:06;;;;;;;139.05;82.63;;;;;;;8.25;97.20;95974.13;4984184;28;20505;-63
2021/01/24 07:46:32;;;;;;;138.38;81.03;;;;;;;7.60;97.19;95825.84;4986324;28;20058;-65
2021/01/24 07:48:57;;;;;;;148.05;90.05;;;;;;;8.34;96.99;95922.16;4986513;28;20034;-63
2021/01/24 07:51:23;;;;;;;137.43;85.22;;;;;;;8.86;95.54;95963.13;4984858;28;20464;-63
2021/01/24 07:53:49;;;;;;;161.40;93.65;;;;;;;7.95;95.12;95816.28;4986081;28;20066;-63
2021/01/24 07:56:15;;;;;;;146.93;88.63;;;;;;;9.12;95.09;95951.81;4986192;28;20097;-63
2021/01/24 07:58:40;;;;;;;118.38;74.15;;;;;;;8.82;94.14;95882.25;4986640;28;20042;-63
2021/01/24 08:01:06;;;;;;;129.32;82.28;;;;;;;8.99;92.01;95887.06;4986108;28;20097;-65
2021/01/24 08:03:34;;;;;;;118.82;77.90;;;;;;;9.62;91.69;95970.22;4986070;28;20492;-63
2021/01/24 08:06:07;;;;;;;108.18;62.33;;;;;;;9.70;91.25;95959.97;4985630;28;20030;-62
2021/01/24 08:08:35;;;;;;;69.63;36.97;;;;;;;9.04;92.81;95839.75;4985921;28;20144;-63
2021/01/24 08:11:01;;;;;;;57.10;34.92;;;;;;;10.07;93.35;95958.47;4984388;28;20398;-63
2021/01/24 08:13:27;;;;;;;23.95;14.68;;;;;;;10.16;92.12;95972.72;4986193;28;20552;-63
2021/01/24 08:15:53;;;;;;;26.58;15.07;;;;;;;8.05;91.94;95589.44;4984200;28;20054;-63
2021/01/24 08:18:20;;;;;;;38.47;20.02;;;;;;;10.26;91.26;95883.38;4984251;28;20426;-63
2021/01/24 08:20:46;;;;;;;26.20;15.70;;;;;;;10.97;89.63;95960.84;4984536;28;20033;-64
2021/01/24 08:23:12;;;;;;;39.47;21.30;;;;;;;10.73;86.42;95921.69;4984791;28;20381;-63
2021/01/24 08:25:39;;;;;;;43.55;23.75;;;;;;;10.60;88.17;95917.78;4984355;28;20078;-63
2021/01/24 08:28:05;;;;;;;38.22;22.75;;;;;;;10.90;88.13;95933.13;4984350;28;20101;-64
2021/01/24 08:30:37;;;;;;;30.77;16.70;;;;;;;8.80;86.58;95569.91;4983952;28;20552;-64
2021/01/24 08:33:03;;;;;;;23.10;13.02;;;;;;;11.28;86.86;95937.78;4983848;28;20386;-64
2021/01/24 08:35:34;;;;;;;20.05;10.77;;;;;;;11.52;83.61;95936.88;4985573;28;20026;-62
2021/01/24 08:38:00;;;;;;;10.48;5.60;;;;;;;11.65;79.03;95940.81;4985861;28;20113;-62
2021/01/24 08:40:32;;;;;;;11.63;6.53;;;;;;;11.27;78.76;95894.63;4985180;28;20172;-63
2021/01/24 08:42:59;;;;;;;12.32;4.82;;;;;;;11.45;77.02;95909.16;4984030;28;20026;-63
2021/01/24 08:45:25;;;;;;;7.70;4.00;;;;;;;11.85;72.33;95955.75;4983581;28;20449;-64
2021/01/24 08:47:54;;;;;;;9.30;5.20;;;;;;;11.90;72.28;95963.66;4983768;28;20034;-63
2021/01/24 08:50:20;;;;;;;6.82;3.40;;;;;;;11.55;70.98;95886.16;4984940;28;20493;-64
2021/01/24 08:52:53;;;;;;;6.30;3.60;;;;;;;12.14;70.20;95957.16;4983804;28;20033;-62
2021/01/24 08:55:18;;;;;;;7.93;4.20;;;;;;;9.89;67.86;95575.97;4984966;28;20492;-63
2021/01/24 08:57:44;;;;;;;7.68;3.75;;;;;;;12.03;66.44;95898.16;4985221;28;20156;-63
2021/01/24 09:00:10;;;;;;;8.15;4.70;;;;;;;12.23;66.90;95912.28;4983579;28;20122;-63
2021/01/24 09:02:38;;;;;;;6.57;3.95;;;;;;;12.60;64.59;95957.59;4985006;28;20125;-63
2021/01/24 09:05:13;;;;;;;6.50;3.97;;;;;;;12.50;63.43;95941.84;4985417;28;20042;-64
2021/01/24 09:07:46;;;;;;;3.63;2.88;;;;;;;12.69;59.61;95944.06;4984987;28;20125;-64
2021/01/24 09:10:25;;;;;;;5.78;3.10;;;;;;;12.42;59.57;95911.75;4985383;28;20081;-62
2021/01/24 09:12:52;;;;;;;4.70;2.42;;;;;;;12.11;58.80;95891.34;4985502;28;20516;-63
2021/01/24 09:15:19;;;;;;;4.07;2.63;;;;;;;11.37;56.94;95796.72;4984980;28;20061;-63
2021/01/24 09:17:47;;;;;;;6.95;3.25;;;;;;;12.73;57.63;95947.56;4983300;28;20023;-64
2021/01/24 09:20:12;;;;;;;3.97;2.08;;;;;;;12.31;56.07;95861.88;4985509;28;20046;-65
2021/01/24 09:22:38;;;;;;;4.60;2.35;;;;;;;12.79;56.24;95934.81;4983321;28;20034;-63
2021/01/24 09:25:07;;;;;;;9.45;3.65;;;;;;;12.94;56.58;95936.28;4983211;28;20042;-64
2021/01/24 09:27:34;;;;;;;3.88;2.55;;;;;;;12.92;56.50;95933.09;4984729;28;20026;-64
2021/01/24 09:29:59;;;;;;;7.95;4.35;;;;;;;12.51;56.61;95887.84;4984371;28;20575;-63
2021/01/24 09:32:25;;;;;;;4.05;3.22;;;;;;;12.73;56.03;95900.34;4983779;28;20030;-64
2021/01/24 09:34:51;;;;;;;8.10;3.85;;;;;;;12.79;55.22;95918.13;4983909;28;20050;-65
2021/01/24 09:37:16;;;;;;;8.55;4.90;;;;;;;12.75;55.95;95914.63;4985104;28;20516;-64
2021/01/24 09:39:42;;;;;;;9.50;4.05;;;;;;;12.90;55.88;95904.94;4983571;28;20045;-65
2021/01/24 09:42:07;;;;;;;18.52;8.20;;;;;;;13.12;54.39;95917.44;4985133;28;20037;-64
2021/01/24 09:44:33;;;;;;;5.22;3.30;;;;;;;13.27;53.96;95912.50;4984833;28;20133;-65
2021/01/24 09:46:59;;;;;;;9.82;5.30;;;;;;;13.42;53.09;95914.69;4984631;28;20057;-64
2021/01/24 09:49:25;;;;;;;7.95;4.13;;;;;;;13.16;50.59;95845.91;4984810;28;20076;-64
2021/01/24 09:51:50;;;;;;;7.57;3.88;;;;;;;13.66;50.64;95910.00;4999531;28;20069;-64
2021/01/24 09:54:17;;;;;;;4.93;2.53;;;;;;;13.31;49.34;95863.97;4985116;28;20040;-64
2021/01/24 09:56:43;;;;;;;4.20;2.78;;;;;;;13.72;48.89;95893.66;4999513;28;20085;-63
2021/01/24 09:59:09;;;;;;;5.78;3.00;;;;;;;13.44;48.80;95853.88;4985235;28;20046;-63
2021/01/24 10:01:34;;;;;;;2.25;2.05;;;;;;;13.42;48.00;95820.13;4983141;28;20382;-64
2021/01/24 10:04:00;;;;;;;3.10;2.60;;;;;;;13.75;48.58;95859.41;4984546;28;20060;-64
2021/01/24 10:06:26;;;;;;;4.25;3.00;;;;;;;13.62;48.14;95840.50;4984554;28;20083;-65
2021/01/24 10:08:51;;;;;;;2.50;2.17;;;;;;;14.02;48.38;95890.84;4986193;28;20050;-64
2021/01/24 10:11:17;;;;;;;3.72;2.80;;;;;;;14.06;46.49;95897.91;4986719;28;20488;-63
2021/01/24 10:13:42;;;;;;;5.05;3.17;;;;;;;13.49;45.46;95786.66;4988372;28;20034;-64
2021/01/24 10:16:08;;;;;;;6.68;2.75;;;;;;;13.72;46.13;95854.69;4988062;28;20524;-63
2021/01/24 10:18:34;;;;;;;6.90;4.47;;;;;;;13.51;46.31;95839.09;4988399;28;20485;-62
2021/01/24 10:20:59;;;;;;;4.05;3.13;;;;;;;13.83;45.92;95894.28;4987839;28;20030;-65
2021/01/24 10:23:25;;;;;;;6.03;4.15;;;;;;;13.75;46.36;95896.41;4988372;28;20141;-64
2021/01/24 10:25:53;;;;;;;9.85;5.97;;;;;;;13.73;45.88;95895.22;4986530;28;20038;-65
2021/01/24 10:28:19;;;;;;;7.32;3.95;;;;;;;13.67;46.40;95901.25;4986131;28;20081;-64
2021/01/24 10:30:47;;;;;;;5.70;4.05;;;;;;;13.40;46.26;95850.34;4986323;28;20148;-64
2021/01/24 10:33:14;;;;;;;6.35;3.47;;;;;;;13.95;45.35;95896.50;4987797;28;20042;-64
2021/01/24 10:35:40;;;;;;;7.88;4.32;;;;;;;13.79;45.82;95905.47;4987662;28;20037;-64
2021/01/24 10:38:06;;;;;;;5.07;3.72;;;;;;;13.61;45.35;95827.00;4988030;28;20030;-65
2021/01/24 10:40:34;;;;;;;8.35;4.88;;;;;;;14.11;45.92;95885.50;4987666;28;20582;-65
2021/01/24 10:43:02;;;;;;;5.63;3.67;;;;;;;14.32;44.78;95866.50;4986097;28;20418;-64
2021/01/24 10:45:27;;;;;;;4.68;2.72;;;;;;;14.50;43.19;95889.28;4987004;28;20034;-65
2021/01/24 10:47:53;;;;;;;2.72;2.53;;;;;;;14.26;42.88;95833.97;4987451;28;20027;-63
2021/01/24 10:50:19;;;;;;;3.38;2.47;;;;;;;14.04;43.23;95804.88;4987460;28;20031;-63
2021/01/24 10:52:44;;;;;;;5.45;2.70;;;;;;;14.64;42.61;95874.31;4985910;28;20125;-62
2021/01/24 10:55:10;;;;;;;5.65;3.28;;;;;;;14.81;42.26;95889.94;4987536;28;20070;-64
2021/01/24 10:57:36;;;;;;;3.97;3.10;;;;;;;13.11;41.61;95614.81;4987403;28;20072;-64
2021/01/24 11:00:02;;;;;;;4.80;3.38;;;;;;;14.89;41.45;95881.00;4985950;28;20038;-64
2021/01/24 11:02:28;;;;;;;9.00;4.40;;;;;;;14.96;42.37;95882.88;4986905;28;20034;-64
2021/01/24 11:04:53;;;;;;;7.68;5.03;;;;;;;14.49;41.72;95797.75;4987720;28;20048;-63
2021/01/24 11:07:18;;;;;;;5.53;3.35;;;;;;;15.02;42.69;95881.19;4985877;28;20389;-64
2021/01/24 11:09:45;;;;;;;4.15;3.70;;;;;;;14.96;42.79;95880.09;4987705;28;20034;-64
2021/01/24 11:12:11;;;;;;;3.60;2.63;;;;;;;14.91;41.94;95873.03;4977730;28;20105;-64
2021/01/24 11:14:36;;;;;;;7.07;3.30;;;;;;;14.80;42.18;95852.91;4967995;28;20502;-65
2021/01/24 11:17:02;;;;;;;5.38;3.55;;;;;;;14.29;41.74;95791.38;4968010;28;20019;-63
2021/01/24 11:19:27;;;;;;;7.88;4.15;;;;;;;14.74;42.88;95871.34;4967791;28;20422;-63
2021/01/24 11:21:53;;;;;;;4.10;2.95;;;;;;;14.74;42.41;95871.34;4982351;28;20038;-64